Time;durP1;ratioP1;P1;durP2;ratioP2;P2;SDS_P1;SDS_P2;PMS_P1;PMS_P2;Temp;Humidity;BMP_temperature;BMP_pressure;BME280_temperature;BME280_humidity;BME280_pressure;Samples;Min_cycle;Max_cycle;Signal;HPM_P1;HPM_P2
2023/03/19 00:01:40;;;;;;;3.40;2.90;;;14.30;99.90;;;;;;5046551;28;20230;-31
2023/03/19 00:04:16;;;;;;;3.47;2.37;;;14.30;99.90;;;;;;5029157;28;20262;-31
2023/03/19 00:06:43;;;;;;;4.53;2.67;;;14.30;99.90;;;;;;5013182;28;20743;-31
2023/03/19 00:09:15;;;;;;;4.95;2.78;;;14.30;99.90;;;;;;5046349;28;20285;-31
2023/03/19 00:11:47;;;;;;;4.30;2.40;;;14.30;99.90;;;;;;5045271;28;20640;-31
2023/03/19 00:14:16;;;;;;;4.03;2.70;;;14.20;99.90;;;;;;5045528;28;20657;-32
2023/03/19 00:16:45;;;;;;;4.57;2.55;;;14.20;99.90;;;;;;5046702;28;20204;-32
2023/03/19 00:19:13;;;;;;;3.63;2.20;;;14.30;99.90;;;;;;5046103;28;20524;-32
2023/03/19 00:21:45;;;;;;;3.97;2.60;;;14.30;99.90;;;;;;5046180;28;20208;-32
2023/03/19 00:24:12;;;;;;;3.67;2.45;;;14.30;99.90;;;;;;5046146;28;20196;-32
2023/03/19 00:26:43;;;;;;;3.03;2.42;;;14.30;99.90;;;;;;5044826;28;20216;-32
2023/03/19 00:29:13;;;;;;;2.40;2.20;;;14.30;99.90;;;;;;5045931;28;20600;-32
2023/03/19 00:31:51;;;;;;;2.27;2.07;;;14.30;99.90;;;;;;5045642;28;20752;-32
2023/03/19 00:34:25;;;;;;;4.03;2.40;;;14.30;99.90;;;;;;5045874;28;20205;-32
2023/03/19 00:36:55;;;;;;;5.43;2.33;;;14.30;99.90;;;;;;5028430;28;20690;-32
2023/03/19 00:39:27;;;;;;;4.38;2.50;;;14.30;99.90;;;;;;5044485;28;20208;-32
2023/03/19 00:41:59;;;;;;;3.27;2.07;;;14.30;99.90;;;;;;5044395;28;20549;-32
2023/03/19 00:44:26;;;;;;;4.10;2.30;;;14.30;99.90;;;;;;5046345;28;20294;-32
2023/03/19 00:46:56;;;;;;;3.67;2.00;;;14.30;99.90;;;;;;5044612;28;20204;-31
2023/03/19 00:49:23;;;;;;;4.77;2.20;;;14.30;99.90;;;;;;5045871;28;20249;-31
2023/03/19 00:51:50;;;;;;;3.57;2.20;;;14.20;99.90;;;;;;5046182;28;20216;-31
2023/03/19 00:54:17;;;;;;;4.37;2.33;;;14.20;99.90;;;;;;5045948;28;20234;-31
2023/03/19 00:56:44;;;;;;;2.33;2.10;;;14.20;99.90;;;;;;5044568;28;20204;-31
2023/03/19 00:59:14;;;;;;;2.37;1.90;;;14.20;99.90;;;;;;5044751;28;20656;-31
2023/03/19 01:01:43;;;;;;;3.27;1.80;;;14.20;99.90;;;;;;5046147;28;20674;-31
2023/03/19 01:04:11;;;;;;;3.43;1.70;;;14.20;99.90;;;;;;5047079;28;20581;-32
2023/03/19 01:06:46;;;;;;;1.87;1.70;;;14.20;99.90;;;;;;5048440;28;20628;-31
2023/03/19 01:09:15;;;;;;;2.63;1.50;;;14.20;99.90;;;;;;5049982;28;20319;-31
2023/03/19 01:11:43;;;;;;;2.75;2.08;;;14.20;99.90;;;;;;5048325;28;20192;-31
2023/03/19 01:14:15;;;;;;;2.47;1.63;;;14.20;99.90;;;;;;5050263;28;20208;-31
2023/03/19 01:16:45;;;;;;;2.63;2.00;;;14.20;99.90;;;;;;5032277;28;20727;-31
2023/03/19 01:19:18;;;;;;;2.17;1.70;;;14.20;99.90;;;;;;5050057;28;20235;-31
2023/03/19 01:21:46;;;;;;;2.47;1.70;;;14.20;99.90;;;;;;5050047;28;20242;-31
2023/03/19 01:24:15;;;;;;;3.67;2.10;;;14.20;99.90;;;;;;5049760;28;20348;-31
2023/03/19 01:26:42;;;;;;;2.40;1.58;;;14.20;99.90;;;;;;5048175;28;20754;-31
2023/03/19 01:29:12;;;;;;;2.67;1.60;;;14.20;99.90;;;;;;5049356;28;20509;-31
2023/03/19 01:31:41;;;;;;;2.77;1.70;;;14.20;99.90;;;;;;5031329;28;20243;-31
2023/03/19 01:34:09;;;;;;;2.13;1.45;;;14.20;99.90;;;;;;5048060;28;20188;-31
2023/03/19 01:36:38;;;;;;;1.90;1.67;;;14.20;99.90;;;;;;5048302;28;20453;-31
2023/03/19 01:39:09;;;;;;;3.33;1.88;;;14.20;99.90;;;;;;5047903;28;20239;-31
2023/03/19 01:41:36;;;;;;;4.10;1.77;;;14.20;99.90;;;;;;5031831;28;20558;-31
2023/03/19 01:44:32;;;;;;;2.70;2.10;;;14.20;99.90;;;;;;5047830;28;20659;-31
2023/03/19 01:47:18;;;;;;;2.42;1.90;;;14.20;99.90;;;;;;5047573;28;20206;-31
2023/03/19 01:49:53;;;;;;;2.57;2.10;;;14.20;99.90;;;;;;5048593;28;20244;-31
2023/03/19 01:52:27;;;;;;;3.07;2.03;;;14.20;99.90;;;;;;5031628;28;20224;-31
2023/03/19 01:54:58;;;;;;;3.20;1.80;;;14.20;99.90;;;;;;5049000;28;20600;-31
2023/03/19 01:57:29;;;;;;;2.72;2.00;;;14.20;99.90;;;;;;5048994;28;20773;-31
2023/03/19 02:00:00;;;;;;;2.43;1.80;;;14.20;99.90;;;;;;5048196;28;20642;-31
2023/03/19 02:02:32;;;;;;;3.53;2.13;;;14.20;99.90;;;;;;5047361;28;20258;-31
2023/03/19 02:05:11;;;;;;;6.50;2.07;;;14.20;99.90;;;;;;5048765;28;20566;-31
2023/03/19 02:07:41;;;;;;;4.10;2.33;;;14.20;99.90;;;;;;5048626;28;20594;-31
2023/03/19 02:10:15;;;;;;;2.60;2.13;;;14.20;99.90;;;;;;5048393;28;20282;-31
2023/03/19 02:12:45;;;;;;;2.28;1.63;;;14.20;99.90;;;;;;5063087;28;20554;-31
2023/03/19 02:15:15;;;;;;;3.08;1.92;;;14.20;99.90;;;;;;5046061;28;20282;-31
2023/03/19 02:17:47;;;;;;;2.83;2.07;;;14.20;99.90;;;;;;5048005;28;20205;-31
2023/03/19 02:20:41;;;;;;;3.03;2.10;;;14.20;99.90;;;;;;5046268;28;20743;-31
2023/03/19 02:23:32;;;;;;;2.53;2.00;;;14.20;99.90;;;;;;5063169;28;20266;-31
2023/03/19 02:26:16;;;;;;;2.10;1.70;;;14.20;99.90;;;;;;5052658;28;20960;-31
2023/03/19 02:28:51;;;;;;;2.17;1.80;;;14.20;99.90;;;;;;5046502;28;20204;-31
2023/03/19 02:31:22;;;;;;;2.30;1.83;;;14.20;99.90;;;;;;5047482;28;20744;-31
2023/03/19 02:34:21;;;;;;;2.40;1.80;;;14.10;99.90;;;;;;5045237;28;20193;-31
2023/03/19 02:36:54;;;;;;;3.20;2.25;;;14.20;99.90;;;;;;5036614;28;20694;-31
2023/03/19 02:39:30;;;;;;;2.40;2.20;;;14.10;99.90;;;;;;5063505;28;20209;-31
2023/03/19 02:41:59;;;;;;;2.90;2.03;;;14.20;99.90;;;;;;5063488;28;20223;-31
2023/03/19 02:44:29;;;;;;;2.55;2.20;;;14.10;99.90;;;;;;5046817;28;20231;-31
2023/03/19 02:46:59;;;;;;;3.13;2.00;;;14.10;99.90;;;;;;5048155;28;20294;-31
2023/03/19 02:49:31;;;;;;;2.83;2.53;;;14.10;99.90;;;;;;5046901;28;20228;-31
2023/03/19 02:52:02;;;;;;;2.93;2.37;;;14.20;99.90;;;;;;5063177;28;20219;-31
2023/03/19 02:54:32;;;;;;;3.63;2.30;;;14.20;99.90;;;;;;5047996;28;20248;-31
2023/03/19 02:57:02;;;;;;;2.80;2.30;;;14.20;99.90;;;;;;5062695;28;20209;-31
2023/03/19 02:59:34;;;;;;;3.40;2.70;;;14.20;99.90;;;;;;5046308;28;20215;-31
2023/03/19 03:02:05;;;;;;;3.43;3.03;;;14.20;99.90;;;;;;5062593;28;20231;-30
2023/03/19 03:04:37;;;;;;;3.30;2.60;;;14.20;99.90;;;;;;5046431;28;20698;-31
2023/03/19 03:07:07;;;;;;;4.35;2.60;;;14.20;99.90;;;;;;5062406;28;20211;-30
2023/03/19 03:09:34;;;;;;;3.47;2.80;;;14.20;99.90;;;;;;5062693;28;20989;-31
2023/03/19 03:12:01;;;;;;;3.53;2.80;;;14.20;99.90;;;;;;5046200;28;20232;-31
2023/03/19 03:14:31;;;;;;;3.10;2.63;;;14.20;99.90;;;;;;5048015;28;20305;-31
2023/03/19 03:16:59;;;;;;;4.30;2.70;;;14.20;99.90;;;;;;5063020;28;20634;-31
2023/03/19 03:19:26;;;;;;;3.23;2.63;;;14.30;99.90;;;;;;5046267;28;20208;-31
2023/03/19 03:21:55;;;;;;;3.37;3.07;;;14.20;99.90;;;;;;5047557;28;20208;-31
2023/03/19 03:24:23;;;;;;;2.92;2.63;;;14.30;99.90;;;;;;5047148;28;20283;-31
2023/03/19 03:26:55;;;;;;;3.60;3.30;;;14.20;99.90;;;;;;5046185;28;20207;-31
2023/03/19 03:29:24;;;;;;;3.40;2.77;;;14.20;99.90;;;;;;5045327;28;20248;-31
2023/03/19 03:31:52;;;;;;;3.80;3.30;;;14.20;99.90;;;;;;5046741;28;20295;-31
2023/03/19 03:34:24;;;;;;;3.90;3.35;;;14.20;99.90;;;;;;5061971;28;20766;-31
2023/03/19 03:36:52;;;;;;;4.73;3.17;;;14.30;99.90;;;;;;5061377;28;20232;-31
2023/03/19 03:39:19;;;;;;;4.87;3.73;;;14.30;99.90;;;;;;5061780;28;20315;-31
2023/03/19 03:41:48;;;;;;;6.77;3.80;;;14.30;99.90;;;;;;5061381;28;20246;-31
2023/03/19 03:44:16;;;;;;;4.40;4.00;;;14.30;99.90;;;;;;5028475;28;20232;-31
2023/03/19 03:46:45;;;;;;;4.85;3.83;;;14.30;99.90;;;;;;5045345;28;20203;-31
2023/03/19 03:49:17;;;;;;;4.50;4.10;;;14.30;99.90;;;;;;5046184;28;20703;-31
2023/03/19 03:51:46;;;;;;;5.40;4.00;;;14.30;99.90;;;;;;5061087;28;20196;-31
2023/03/19 03:54:16;;;;;;;6.30;4.35;;;14.30;99.90;;;;;;5044651;28;20358;-31
2023/03/19 03:56:46;;;;;;;5.55;4.40;;;14.30;99.90;;;;;;5046238;28;20258;-31
2023/03/19 03:59:16;;;;;;;7.20;5.00;;;14.20;99.90;;;;;;5046194;28;20214;-31
2023/03/19 04:01:48;;;;;;;4.63;3.97;;;14.30;99.90;;;;;;5046161;28;20200;-31
2023/03/19 04:04:15;;;;;;;4.78;4.28;;;14.30;99.90;;;;;;5044635;28;20655;-31
2023/03/19 04:06:42;;;;;;;5.23;4.17;;;14.30;99.90;;;;;;5046565;28;20667;-31
2023/03/19 04:09:09;;;;;;;6.17;5.57;;;14.30;99.90;;;;;;5046103;28;20196;-31
2023/03/19 04:11:38;;;;;;;5.07;4.50;;;14.30;99.90;;;;;;5045094;28;20309;-31
2023/03/19 04:14:06;;;;;;;5.30;4.80;;;14.30;99.90;;;;;;5046460;28;20204;-31
2023/03/19 04:16:36;;;;;;;6.38;5.30;;;14.30;99.90;;;;;;5046209;28;20201;-31
2023/03/19 04:19:04;;;;;;;5.53;5.00;;;14.30;99.90;;;;;;5046522;28;20204;-31
2023/03/19 04:21:33;;;;;;;6.07;5.47;;;14.30;99.90;;;;;;5061555;28;20691;-31
2023/03/19 04:24:01;;;;;;;6.15;5.55;;;14.30;99.90;;;;;;5044629;28;20634;-31
2023/03/19 04:26:28;;;;;;;7.10;5.87;;;14.30;99.90;;;;;;5044812;28;20210;-31
2023/03/19 04:28:59;;;;;;;6.60;5.82;;;14.30;99.90;;;;;;5044862;28;20196;-31
2023/03/19 04:31:26;;;;;;;7.13;6.23;;;14.30;99.90;;;;;;5045423;28;20277;-31
2023/03/19 04:33:53;;;;;;;7.40;6.38;;;14.20;99.90;;;;;;5046509;28;20236;-31
2023/03/19 04:36:20;;;;;;;8.10;6.63;;;14.30;99.90;;;;;;5044763;28;20236;-30
2023/03/19 04:38:52;;;;;;;7.13;6.22;;;14.20;99.90;;;;;;5061138;28;20200;-31
2023/03/19 04:41:25;;;;;;;7.43;6.73;;;14.20;99.90;;;;;;5046485;28;20208;-31
2023/03/19 04:43:54;;;;;;;8.32;7.43;;;14.20;99.90;;;;;;5060996;28;20199;-31
2023/03/19 04:46:26;;;;;;;10.68;8.43;;;14.20;99.90;;;;;;5044899;28;20208;-31
2023/03/19 04:48:56;;;;;;;9.67;8.67;;;14.10;99.90;;;;;;5060838;28;20196;-31
2023/03/19 04:51:26;;;;;;;10.05;9.05;;;14.10;99.90;;;;;;5060375;28;20236;-30
2023/03/19 04:53:55;;;;;;;10.88;8.45;;;14.10;99.90;;;;;;5045607;28;20691;-31
2023/03/19 04:56:23;;;;;;;10.23;9.00;;;14.10;99.90;;;;;;5044001;28;20215;-31
2023/03/19 04:58:53;;;;;;;9.53;8.33;;;14.00;99.90;;;;;;5044280;28;20280;-31
2023/03/19 05:01:25;;;;;;;10.20;8.83;;;14.00;99.90;;;;;;5045575;28;20200;-31
2023/03/19 05:03:52;;;;;;;11.30;8.80;;;13.90;99.90;;;;;;5045740;28;20215;-31
2023/03/19 05:06:21;;;;;;;9.57;8.07;;;13.90;99.90;;;;;;5045637;28;20216;-31
2023/03/19 05:08:51;;;;;;;8.87;7.97;;;13.80;99.90;;;;;;5045477;28;20299;-31
2023/03/19 05:11:20;;;;;;;9.27;7.93;;;13.80;99.90;;;;;;5044122;28;20227;-31
2023/03/19 05:13:48;;;;;;;9.60;8.60;;;13.80;99.90;;;;;;5044016;28;20287;-31
2023/03/19 05:16:15;;;;;;;8.83;7.93;;;13.70;99.90;;;;;;5045969;28;20196;-31
2023/03/19 05:18:43;;;;;;;9.67;8.07;;;13.60;99.90;;;;;;5046056;28;20192;-31
2023/03/19 05:21:11;;;;;;;9.27;8.37;;;13.60;99.90;;;;;;5045604;28;20193;-31
2023/03/19 05:23:41;;;;;;;9.07;8.05;;;13.60;99.90;;;;;;5045727;28;20208;-31
2023/03/19 05:26:10;;;;;;;9.53;8.23;;;13.50;99.90;;;;;;5045483;28;20307;-31
2023/03/19 05:28:38;;;;;;;9.57;8.57;;;13.40;99.90;;;;;;5061130;28;20204;-31
2023/03/19 05:31:06;;;;;;;9.90;7.93;;;13.40;99.90;;;;;;5044165;28;20607;-31
2023/03/19 05:33:35;;;;;;;9.17;7.80;;;13.40;99.90;;;;;;5045840;28;20285;-31
2023/03/19 05:36:03;;;;;;;8.67;7.77;;;13.30;99.90;;;;;;5045571;28;20401;-31
2023/03/19 05:38:34;;;;;;;8.00;7.10;;;13.30;99.90;;;;;;5060741;28;20635;-31
2023/03/19 05:41:07;;;;;;;8.60;6.77;;;13.30;99.90;;;;;;5045259;28;20853;-31
2023/03/19 05:43:37;;;;;;;7.93;6.83;;;13.30;99.90;;;;;;5060476;28;20357;-31
2023/03/19 05:46:04;;;;;;;8.30;6.37;;;13.20;99.90;;;;;;5043930;28;20247;-31
2023/03/19 05:48:33;;;;;;;7.97;6.03;;;13.20;99.90;;;;;;5060766;28;20196;-31
2023/03/19 05:51:03;;;;;;;8.10;6.10;;;13.20;99.90;;;;;;5047776;28;20347;-31
2023/03/19 05:53:30;;;;;;;7.40;6.30;;;13.10;99.90;;;;;;5049276;28;20227;-31
2023/03/19 05:55:59;;;;;;;9.23;6.20;;;13.10;99.90;;;;;;5047363;28;20316;-31
2023/03/19 05:58:27;;;;;;;7.43;6.60;;;13.00;99.90;;;;;;5047637;28;20199;-31
2023/03/19 06:00:57;;;;;;;6.97;6.27;;;13.00;99.90;;;;;;5049312;28;20604;-31
2023/03/19 06:03:26;;;;;;;6.97;6.27;;;12.90;99.90;;;;;;5063931;28;20248;-31
2023/03/19 06:05:56;;;;;;;7.10;6.40;;;13.00;99.90;;;;;;5048817;28;20203;-31
2023/03/19 06:08:23;;;;;;;9.60;7.03;;;12.90;99.90;;;;;;5048758;28;20222;-31
2023/03/19 06:10:58;;;;;;;8.73;6.90;;;12.90;99.90;;;;;;5048833;28;20242;-31
2023/03/19 06:13:27;;;;;;;8.53;7.00;;;12.90;99.90;;;;;;5047439;28;20291;-31
2023/03/19 06:15:55;;;;;;;8.43;7.20;;;12.90;99.90;;;;;;5063832;28;20218;-31
2023/03/19 06:18:22;;;;;;;8.00;6.53;;;12.90;99.90;;;;;;5063632;28;20207;-31
2023/03/19 06:20:49;;;;;;;8.30;6.30;;;12.90;99.90;;;;;;5063473;28;20216;-31
2023/03/19 06:23:19;;;;;;;7.53;6.57;;;12.80;99.90;;;;;;5046956;28;20234;-31
2023/03/19 06:25:46;;;;;;;8.60;6.53;;;12.90;99.90;;;;;;5048460;28;20204;-31
2023/03/19 06:28:16;;;;;;;9.23;6.00;;;12.90;99.90;;;;;;5046409;28;20216;-31
2023/03/19 06:30:43;;;;;;;10.00;6.67;;;12.90;99.90;;;;;;5046360;28;20250;-31
2023/03/19 06:33:15;;;;;;;6.20;5.60;;;12.90;99.90;;;;;;5046565;28;20224;-31
2023/03/19 06:35:45;;;;;;;8.83;5.80;;;12.90;99.90;;;;;;5046438;28;20295;-30
2023/03/19 06:38:13;;;;;;;8.60;5.40;;;12.90;99.90;;;;;;5046307;28;20216;-31
2023/03/19 06:40:40;;;;;;;8.53;5.97;;;12.90;99.90;;;;;;5062828;28;20206;-31
2023/03/19 06:43:12;;;;;;;6.73;5.17;;;13.00;99.90;;;;;;5062378;28;20211;-31
2023/03/19 06:45:45;;;;;;;5.93;5.33;;;13.00;99.90;;;;;;5062551;28;20623;-31
2023/03/19 06:48:15;;;;;;;7.90;5.27;;;13.00;99.90;;;;;;5047657;28;20235;-31
2023/03/19 06:50:48;;;;;;;6.47;5.03;;;13.00;99.90;;;;;;5062636;28;20224;-31
2023/03/19 06:53:20;;;;;;;8.40;5.10;;;13.10;99.90;;;;;;5062096;28;20231;-31
2023/03/19 06:55:52;;;;;;;6.73;4.57;;;13.10;99.90;;;;;;5048011;28;20216;-31
2023/03/19 06:58:21;;;;;;;5.90;4.77;;;13.10;99.90;;;;;;5046110;28;20231;-31
2023/03/19 07:00:49;;;;;;;7.70;5.93;;;13.10;99.90;;;;;;5061557;28;20717;-31
2023/03/19 07:03:17;;;;;;;5.67;5.03;;;13.10;99.90;;;;;;5046210;28;20250;-31
2023/03/19 07:05:44;;;;;;;7.87;5.60;;;13.10;99.90;;;;;;5062612;28;20222;-31
2023/03/19 07:08:14;;;;;;;9.50;5.70;;;13.10;99.90;;;;;;5062786;28;20196;-31
2023/03/19 07:10:41;;;;;;;6.57;5.67;;;13.10;99.90;;;;;;5046317;28;20636;-31
2023/03/19 07:13:10;;;;;;;6.50;5.80;;;13.10;99.90;;;;;;5047798;28;20740;-31
2023/03/19 07:15:37;;;;;;;7.60;5.17;;;13.10;99.90;;;;;;5047818;28;20214;-31
2023/03/19 07:18:05;;;;;;;6.50;5.77;;;13.10;99.90;;;;;;5062370;28;20250;-31
2023/03/19 07:20:37;;;;;;;7.83;5.67;;;13.10;99.90;;;;;;5047612;28;20205;-31
2023/03/19 07:23:08;;;;;;;8.57;6.13;;;13.10;99.90;;;;;;5047534;28;20303;-31
2023/03/19 07:25:38;;;;;;;8.43;5.90;;;13.10;99.90;;;;;;5047798;28;20732;-31
2023/03/19 07:28:05;;;;;;;9.43;5.53;;;13.20;99.90;;;;;;5047786;28;20192;-33
2023/03/19 07:30:32;;;;;;;7.37;5.60;;;13.20;99.90;;;;;;5046851;28;20220;-31
2023/03/19 07:33:04;;;;;;;9.13;5.07;;;13.20;99.90;;;;;;5061739;28;20230;-31
2023/03/19 07:35:32;;;;;;;10.60;6.90;;;13.20;99.90;;;;;;5061968;28;20307;-31
2023/03/19 07:38:01;;;;;;;7.70;6.17;;;13.20;99.90;;;;;;5047002;28;20212;-31
2023/03/19 07:40:28;;;;;;;9.80;6.90;;;13.20;99.90;;;;;;5046885;28;20218;-31
2023/03/19 07:42:55;;;;;;;11.60;7.80;;;13.20;99.90;;;;;;5046245;28;20203;-31
2023/03/19 07:45:23;;;;;;;9.43;7.33;;;13.20;99.90;;;;;;5061584;28;20747;-31
2023/03/19 07:47:52;;;;;;;12.27;8.73;;;13.20;99.90;;;;;;5061381;28;20282;-31
2023/03/19 07:50:20;;;;;;;13.20;8.30;;;13.20;99.90;;;;;;5046597;28;20333;-31
2023/03/19 07:52:50;;;;;;;10.33;8.23;;;13.20;99.90;;;;;;5044610;28;20279;-32
2023/03/19 07:55:20;;;;;;;15.37;10.23;;;13.20;99.90;;;;;;5045261;28;20224;-31
2023/03/19 07:57:49;;;;;;;12.63;8.90;;;13.20;99.90;;;;;;5044965;28;20302;-31
2023/03/19 08:00:17;;;;;;;14.73;10.33;;;13.20;99.90;;;;;;5046799;28;20223;-31
2023/03/19 08:02:44;;;;;;;15.03;10.07;;;13.30;99.90;;;;;;5046361;28;20693;-31
2023/03/19 08:05:15;;;;;;;15.53;9.47;;;13.20;99.90;;;;;;5061134;28;20213;-31
2023/03/19 08:07:43;;;;;;;18.43;10.40;;;13.20;99.90;;;;;;5046140;28;20295;-31
2023/03/19 08:10:11;;;;;;;13.80;9.30;;;13.30;99.90;;;;;;5046064;28;20281;-31
2023/03/19 08:12:40;;;;;;;15.10;9.53;;;13.40;99.90;;;;;;5044260;28;20231;-31
2023/03/19 08:15:11;;;;;;;14.30;8.50;;;13.40;99.90;;;;;;5047092;28;20236;-31
2023/03/19 08:17:41;;;;;;;12.03;7.33;;;13.30;99.90;;;;;;5046497;28;20192;-31
2023/03/19 08:20:12;;;;;;;15.77;8.47;;;13.40;99.90;;;;;;5046071;28;20217;-31
2023/03/19 08:22:42;;;;;;;14.90;8.33;;;13.40;99.90;;;;;;5045142;28;20701;-31
2023/03/19 08:25:12;;;;;;;12.80;7.70;;;13.40;99.90;;;;;;5046514;28;20242;-31
2023/03/19 08:27:42;;;;;;;11.93;7.17;;;13.50;99.90;;;;;;5046493;28;20224;-31
2023/03/19 08:30:12;;;;;;;16.65;7.57;;;13.50;99.90;;;;;;5061350;28;21090;-31
2023/03/19 08:32:48;;;;;;;13.87;6.97;;;13.50;99.90;;;;;;5044888;28;20748;-31
2023/03/19 08:35:17;;;;;;;11.90;7.20;;;13.50;99.90;;;;;;5061277;28;20292;-31
2023/03/19 08:37:49;;;;;;;14.67;7.63;;;13.50;99.90;;;;;;5046110;28;20250;-31
2023/03/19 08:40:21;;;;;;;12.83;7.00;;;13.60;99.90;;;;;;5045197;28;20628;-31
2023/03/19 08:42:53;;;;;;;14.47;7.27;;;13.60;99.90;;;;;;5046149;28;20207;-31
2023/03/19 08:45:21;;;;;;;14.67;7.23;;;13.60;99.90;;;;;;5044788;28;20201;-31
2023/03/19 08:47:51;;;;;;;14.37;6.57;;;13.60;99.90;;;;;;5061251;28;20205;-31
2023/03/19 08:50:20;;;;;;;14.73;6.70;;;13.70;99.90;;;;;;5028922;28;20319;-31
2023/03/19 08:52:47;;;;;;;14.53;6.27;;;13.70;99.90;;;;;;5044736;28;20199;-31
2023/03/19 08:55:15;;;;;;;13.00;5.40;;;13.70;99.90;;;;;;5044633;28;20678;-31
2023/03/19 08:57:45;;;;;;;10.43;5.77;;;13.70;99.90;;;;;;5060702;28;20188;-31
2023/03/19 09:00:15;;;;;;;10.23;4.80;;;13.70;99.90;;;;;;5045545;28;20440;-31
2023/03/19 09:02:42;;;;;;;14.63;5.50;;;13.70;99.90;;;;;;5045492;28;20228;-31
2023/03/19 09:05:15;;;;;;;10.10;5.10;;;13.80;99.90;;;;;;5043782;28;20200;-31
2023/03/19 09:07:42;;;;;;;13.07;6.00;;;13.80;99.90;;;;;;5045820;28;20203;-31
2023/03/19 09:10:10;;;;;;;10.63;4.80;;;13.90;99.90;;;;;;5061268;28;20240;-31
2023/03/19 09:12:37;;;;;;;12.48;4.93;;;13.90;99.90;;;;;;5043974;28;20294;-31
2023/03/19 09:15:09;;;;;;;10.13;4.90;;;13.90;99.90;;;;;;5044345;28;20231;-31
2023/03/19 09:17:37;;;;;;;15.33;4.13;;;13.90;99.90;;;;;;5061410;28;20200;-31
2023/03/19 09:20:07;;;;;;;10.57;4.57;;;14.00;99.90;;;;;;5060902;28;20242;-31
2023/03/19 09:22:34;;;;;;;9.93;4.27;;;14.00;99.90;;;;;;5060498;28;20877;-33
2023/03/19 09:25:08;;;;;;;10.57;3.78;;;14.00;99.90;;;;;;5048312;28;20223;-31
2023/03/19 09:27:38;;;;;;;12.57;4.27;;;14.10;99.90;;;;;;5064729;28;20207;-31
2023/03/19 09:30:08;;;;;;;11.20;3.90;;;14.10;99.90;;;;;;5063792;28;20216;-31
2023/03/19 09:32:36;;;;;;;11.53;4.10;;;14.20;99.90;;;;;;5049134;28;20612;-32
2023/03/19 09:35:03;;;;;;;10.97;3.43;;;14.30;99.90;;;;;;5047463;28;20746;-31
2023/03/19 09:37:33;;;;;;;10.03;3.20;;;14.40;99.90;;;;;;5064042;28;20426;-31
2023/03/19 09:40:03;;;;;;;8.77;3.30;;;14.50;99.90;;;;;;5064203;28;20204;-31
2023/03/19 09:42:43;;;;;;;8.27;3.50;;;14.60;99.90;;;;;;5063760;28;20212;-31
2023/03/19 09:45:18;;;;;;;10.83;2.90;;;14.70;99.90;;;;;;5063844;28;20200;-31
2023/03/19 09:47:49;;;;;;;8.80;3.27;;;14.80;99.90;;;;;;5048689;28;20757;-32
2023/03/19 09:50:22;;;;;;;9.33;2.87;;;14.80;99.90;;;;;;5048829;28;20216;-31
2023/03/19 09:53:05;;;;;;;6.77;2.83;;;15.00;99.90;;;;;;5048386;28;20234;-31
2023/03/19 09:55:51;;;;;;;6.67;2.70;;;15.10;99.90;;;;;;5048628;28;20210;-31
2023/03/19 09:58:32;;;;;;;10.50;3.00;;;15.20;99.90;;;;;;5064086;28;20626;-31
2023/03/19 10:01:03;;;;;;;6.13;2.47;;;15.30;99.90;;;;;;5047452;28;20204;-32
2023/03/19 10:03:42;;;;;;;9.57;2.60;;;15.30;99.90;;;;;;5048942;28;20250;-31
2023/03/19 10:06:15;;;;;;;8.30;2.57;;;15.40;99.90;;;;;;5049138;28;20239;-32
2023/03/19 10:08:57;;;;;;;14.90;3.60;;;15.50;99.90;;;;;;5048687;28;20192;-32
2023/03/19 10:11:36;;;;;;;7.63;2.67;;;15.60;99.90;;;;;;5048969;28;20228;-31
2023/03/19 10:14:20;;;;;;;7.50;2.30;;;15.70;99.90;;;;;;5063843;28;20674;-33
2023/03/19 10:16:53;;;;;;;7.17;1.90;;;15.70;99.90;;;;;;5063532;28;20212;-32
2023/03/19 10:19:37;;;;;;;10.20;2.23;;;15.80;99.90;;;;;;5047078;28;20283;-32
2023/03/19 10:22:13;;;;;;;7.63;2.20;;;15.80;99.90;;;;;;5048598;28;20210;-32
2023/03/19 10:24:43;;;;;;;9.17;2.80;;;15.80;99.90;;;;;;5063545;28;20326;-32
2023/03/19 10:27:15;;;;;;;7.10;1.77;;;15.80;99.90;;;;;;5063607;28;20675;-31
2023/03/19 10:29:43;;;;;;;10.43;2.40;;;15.80;99.90;;;;;;5048446;28;20218;-32
2023/03/19 10:32:33;;;;;;;7.78;2.15;;;15.80;99.90;;;;;;5047055;28;20228;-32
2023/03/19 10:35:17;;;;;;;9.50;2.28;;;15.80;99.90;;;;;;5035099;28;20214;-32
2023/03/19 10:37:45;;;;;;;7.32;2.10;;;15.70;99.90;;;;;;5049051;28;20191;-32
2023/03/19 10:40:38;;;;;;;6.55;1.75;;;15.70;99.90;;;;;;5046682;28;20196;-31
2023/03/19 10:43:17;;;;;;;4.93;1.58;;;15.70;99.90;;;;;;5048272;28;20305;-32
2023/03/19 10:45:48;;;;;;;8.50;2.55;;;15.70;99.90;;;;;;5048683;28;20196;-32
2023/03/19 10:48:18;;;;;;;6.88;2.05;;;15.70;99.90;;;;;;5048532;28;20200;-32
2023/03/19 10:50:54;;;;;;;7.78;2.30;;;15.80;99.90;;;;;;5046734;28;20196;-32
2023/03/19 10:53:32;;;;;;;8.43;2.58;;;15.80;99.90;;;;;;5048138;28;20312;-32
2023/03/19 10:56:06;;;;;;;5.88;2.10;;;15.80;99.90;;;;;;5063455;28;20283;-32
2023/03/19 10:58:35;;;;;;;7.97;2.40;;;15.80;99.90;;;;;;5046651;28;20711;-31
2023/03/19 11:01:08;;;;;;;9.82;2.80;;;15.80;99.90;;;;;;5047731;28;20207;-31
2023/03/19 11:03:54;;;;;;;6.93;2.27;;;15.80;99.90;;;;;;5047927;28;20643;-31
2023/03/19 11:06:26;;;;;;;7.85;2.05;;;15.80;99.90;;;;;;5048076;28;20208;-31
2023/03/19 11:09:09;;;;;;;3.70;1.80;;;15.90;99.90;;;;;;5046159;28;21032;-32
2023/03/19 11:11:52;;;;;;;4.93;1.30;;;15.90;99.90;;;;;;5047473;28;20224;-32
2023/03/19 11:14:34;;;;;;;6.50;1.73;;;15.90;99.90;;;;;;5047527;28;20211;-32
2023/03/19 11:17:10;;;;;;;3.78;1.25;;;16.00;99.90;;;;;;5046224;28;20690;-31
2023/03/19 11:19:49;;;;;;;6.88;1.75;;;16.00;99.90;;;;;;5047483;28;20223;-32
2023/03/19 11:22:26;;;;;;;5.70;1.65;;;16.00;99.90;;;;;;5045846;28;20224;-32
2023/03/19 11:25:00;;;;;;;5.55;1.80;;;16.00;99.90;;;;;;5061925;28;20216;-32
2023/03/19 11:27:36;;;;;;;7.35;1.95;;;16.10;99.90;;;;;;5047056;28;20232;-32
2023/03/19 11:30:12;;;;;;;5.65;1.70;;;16.10;99.90;;;;;;5061657;28;20223;-32
2023/03/19 11:32:42;;;;;;;6.38;1.90;;;16.10;99.90;;;;;;5045178;28;20572;-32
2023/03/19 11:35:24;;;;;;;8.95;2.58;;;16.10;99.90;;;;;;5047134;28;20242;-32
2023/03/19 11:37:57;;;;;;;8.10;1.90;;;16.20;99.90;;;;;;5061858;28;20232;-32
2023/03/19 11:40:54;;;;;;;7.20;2.60;;;16.20;99.90;;;;;;5061783;28;20695;-31
2023/03/19 11:43:44;;;;;;;7.83;2.20;;;16.20;99.90;;;;;;5044901;28;20212;-32
2023/03/19 11:46:14;;;;;;;8.60;2.33;;;16.20;99.90;;;;;;5046373;28;20200;-31
2023/03/19 11:49:07;;;;;;;7.83;2.50;;;16.20;99.90;;;;;;5045957;28;20290;-31
2023/03/19 11:51:55;;;;;;;7.40;2.67;;;16.20;99.90;;;;;;5046449;28;20254;-32
2023/03/19 11:54:48;;;;;;;9.13;2.67;;;16.20;99.90;;;;;;5046867;28;20314;-32
2023/03/19 11:57:22;;;;;;;9.70;3.20;;;16.20;99.90;;;;;;5061940;28;20196;-32
2023/03/19 12:00:08;;;;;;;6.25;2.60;;;16.20;99.90;;;;;;5062008;28;20199;-32
2023/03/19 12:03:15;;;;;;;7.38;2.25;;;16.20;99.90;;;;;;5061478;28;20270;-32
2023/03/19 12:05:54;;;;;;;9.80;2.60;;;16.20;99.90;;;;;;5045098;28;20666;-32
2023/03/19 12:09:15;;;;;;;7.57;2.22;;;16.20;99.90;;;;;;5046536;28;20235;-31
2023/03/19 12:11:46;;;;;;;6.75;2.25;;;16.20;99.90;;;;;;4984193;28;20244;-30
2023/03/19 12:14:31;;;;;;;8.45;2.28;;;16.10;99.90;;;;;;5031784;28;20223;-31
2023/03/19 12:17:06;;;;;;;5.75;2.22;;;16.20;99.90;;;;;;5046389;28;20283;-30
2023/03/19 12:20:11;;;;;;;7.33;2.03;;;16.20;99.90;;;;;;5044573;28;20212;-31
2023/03/19 12:23:06;;;;;;;6.87;2.13;;;16.20;99.90;;;;;;5060955;28;20204;-31
2023/03/19 12:25:55;;;;;;;8.57;2.35;;;16.20;99.90;;;;;;5044959;28;20211;-31
2023/03/19 12:28:32;;;;;;;8.40;2.07;;;16.20;99.90;;;;;;5046642;28;20227;-31
2023/03/19 12:31:18;;;;;;;9.38;4.93;;;16.20;99.90;;;;;;5045338;28;20657;-31
2023/03/19 12:34:06;;;;;;;11.75;5.60;;;16.30;99.90;;;;;;5046544;28;20604;-30
2023/03/19 12:36:44;;;;;;;12.80;5.60;;;16.30;99.90;;;;;;5046059;28;20644;-31
2023/03/19 12:39:20;;;;;;;13.20;5.78;;;16.30;99.90;;;;;;5046219;28;20299;-31
2023/03/19 12:41:50;;;;;;;14.02;6.00;;;16.30;99.90;;;;;;5061036;28;20254;-31
2023/03/19 12:44:39;;;;;;;10.30;6.03;;;16.30;99.90;;;;;;5060798;28;20208;-31
2023/03/19 12:47:31;;;;;;;12.23;5.90;;;16.40;99.90;;;;;;5044185;28;20227;-31
2023/03/19 12:50:14;;;;;;;13.43;6.65;;;16.40;99.90;;;;;;5045788;28;20220;-31
2023/03/19 12:52:48;;;;;;;14.70;6.93;;;16.40;99.90;;;;;;5045717;28;20569;-31
2023/03/19 12:55:43;;;;;;;11.57;6.65;;;16.40;99.90;;;;;;5045742;28;20735;-31
2023/03/19 12:58:36;;;;;;;14.15;6.22;;;16.50;99.90;;;;;;5046241;28;20994;-31
2023/03/19 13:01:13;;;;;;;9.20;5.00;;;16.50;99.90;;;;;;5064598;28;20562;-31
2023/03/19 13:03:55;;;;;;;8.57;4.50;;;16.50;99.90;;;;;;5065331;28;20273;-31
2023/03/19 13:06:29;;;;;;;10.60;4.70;;;16.50;99.90;;;;;;5065114;28;20572;-30
2023/03/19 13:09:20;;;;;;;6.75;4.03;;;16.50;99.90;;;;;;5064697;28;20253;-31
2023/03/19 13:12:09;;;;;;;10.55;4.70;;;16.50;99.90;;;;;;5049616;28;20581;-31
2023/03/19 13:14:55;;;;;;;6.00;3.63;;;16.50;99.90;;;;;;5064218;28;20291;-31